Time;durP1;ratioP1;P1;durP2;ratioP2;P2;SDS_P1;SDS_P2;PMS_P1;PMS_P2;Temp;Humidity;BMP_temperature;BMP_pressure;BME280_temperature;BME280_humidity;BME280_pressure;Samples;Min_cycle;Max_cycle;Signal;HPM_P1;HPM_P2
2022/05/07 00:02:17;;;;;;;37.13;20.42;;;11.70;99.90;;;;;;5084764;28;20409;-66
2022/05/07 00:04:43;;;;;;;57.97;24.08;;;11.70;99.90;;;;;;5092469;28;20032;-66
2022/05/07 00:07:11;;;;;;;45.88;22.88;;;11.60;99.90;;;;;;5092906;28;20047;-66
2022/05/07 00:09:38;;;;;;;;;;;11.60;99.90;;;;;;5082724;28;20029;-66
2022/05/07 00:12:06;;;;;;;43.63;22.85;;;11.60;99.90;;;;;;5089727;28;19926;-66
2022/05/07 00:14:33;;;;;;;51.28;22.38;;;11.60;99.90;;;;;;5092618;28;20036;-67
2022/05/07 00:19:46;;;;;;;109.65;28.08;;;11.60;99.90;;;;;;5087224;28;20040;-67
2022/05/07 00:22:13;;;;;;;;;;;11.60;99.90;;;;;;5093484;28;20040;-66
2022/05/07 00:24:40;;;;;;;101.80;27.33;;;11.60;99.90;;;;;;5092815;28;19969;-66
2022/05/07 00:27:07;;;;;;;44.70;22.35;;;11.50;99.90;;;;;;5082145;28;20040;-66
2022/05/07 00:29:34;;;;;;;55.08;22.88;;;11.50;99.90;;;;;;5074110;28;20089;-66
2022/05/07 00:32:01;;;;;;;43.05;22.15;;;11.50;99.90;;;;;;5074671;28;20051;-66
2022/05/07 00:34:28;;;;;;;42.88;21.67;;;11.50;99.90;;;;;;5092769;28;20036;-66
2022/05/07 00:36:54;;;;;;;40.63;20.60;;;11.50;99.90;;;;;;5079999;28;20039;-66
2022/05/07 00:39:21;;;;;;;47.72;22.05;;;11.50;99.90;;;;;;5073338;28;20044;-66
2022/05/07 00:41:48;;;;;;;43.97;21.88;;;11.50;99.90;;;;;;5090763;28;20067;-66
2022/05/07 00:44:15;;;;;;;44.72;21.42;;;11.40;99.90;;;;;;5087214;28;20054;-66
2022/05/07 00:46:42;;;;;;;41.03;21.90;;;11.40;99.90;;;;;;5078431;28;20050;-66
2022/05/07 00:49:08;;;;;;;45.05;21.30;;;11.40;99.90;;;;;;5054458;28;20508;-66
2022/05/07 00:51:35;;;;;;;37.97;21.10;;;11.40;99.90;;;;;;5064848;28;20063;-66
2022/05/07 00:54:08;;;;;;;33.83;18.90;;;11.40;99.90;;;;;;5065766;28;20198;-66
2022/05/07 00:56:37;;;;;;;41.28;20.15;;;11.40;99.90;;;;;;5073809;28;20036;-66
2022/05/07 00:59:05;;;;;;;39.15;21.05;;;11.40;99.90;;;;;;5070770;28;20624;-66
2022/05/07 01:01:32;;;;;;;;;;;11.40;99.90;;;;;;5083849;28;20044;-66
2022/05/07 01:04:00;;;;;;;38.33;19.08;;;11.50;99.90;;;;;;5073988;28;19924;-67
2022/05/07 01:06:31;;;;;;;36.88;19.83;;;11.50;99.90;;;;;;5091435;28;20040;-66
2022/05/07 01:08:58;;;;;;;39.08;20.40;;;11.50;99.90;;;;;;5086960;28;20055;-66
2022/05/07 01:11:27;;;;;;;35.72;18.58;;;11.50;99.90;;;;;;5071530;28;20028;-66
2022/05/07 01:13:57;;;;;;;40.53;20.25;;;11.50;99.90;;;;;;5053731;28;20497;-66
2022/05/07 01:16:27;;;;;;;39.35;19.00;;;11.50;99.90;;;;;;5069035;28;20381;-66
2022/05/07 01:18:53;;;;;;;40.10;20.08;;;11.50;99.90;;;;;;5087182;28;20075;-66
2022/05/07 01:21:20;;;;;;;35.53;20.85;;;11.50;99.90;;;;;;5091314;28;20416;-66
2022/05/07 01:23:49;;;;;;;36.40;20.15;;;11.50;99.90;;;;;;5071969;28;20077;-66
2022/05/07 01:26:21;;;;;;;38.15;20.48;;;11.50;99.90;;;;;;5069946;28;20054;-66
2022/05/07 01:28:49;;;;;;;32.92;18.40;;;11.50;99.90;;;;;;5071500;28;20489;-66
2022/05/07 01:31:16;;;;;;;38.83;20.15;;;11.50;99.90;;;;;;5053239;28;20086;-66
2022/05/07 01:33:43;;;;;;;39.28;19.48;;;11.40;99.90;;;;;;5076903;28;20572;-67
2022/05/07 01:36:18;;;;;;;39.30;20.38;;;11.40;99.90;;;;;;5089919;28;20093;-66
2022/05/07 01:38:48;;;;;;;38.80;20.67;;;11.40;99.90;;;;;;5073191;28;20080;-66
2022/05/07 01:41:15;;;;;;;36.47;19.98;;;11.40;99.90;;;;;;5091153;28;20040;-67
2022/05/07 01:43:44;;;;;;;32.80;19.20;;;11.40;99.90;;;;;;5066392;28;20132;-66
2022/05/07 01:49:01;;;;;;;33.33;17.73;;;11.40;99.90;;;;;;5072288;28;20439;-66
2022/05/07 01:51:29;;;;;;;38.17;19.52;;;11.30;99.90;;;;;;5067959;28;20127;-67
2022/05/07 01:53:57;;;;;;;32.58;18.00;;;11.30;99.90;;;;;;5068910;28;20046;-66
2022/05/07 01:56:24;;;;;;;33.85;18.85;;;11.40;99.90;;;;;;5091243;28;20069;-67
2022/05/07 01:58:52;;;;;;;39.85;19.70;;;11.30;99.90;;;;;;5088894;28;20097;-67
2022/05/07 02:01:20;;;;;;;31.50;18.05;;;11.30;99.90;;;;;;5064185;28;20421;-67
2022/05/07 02:03:47;;;;;;;37.70;19.17;;;11.30;99.90;;;;;;5091460;28;20390;-66
2022/05/07 02:06:19;;;;;;;36.45;18.85;;;11.40;99.90;;;;;;5090000;28;20048;-66
2022/05/07 02:08:47;;;;;;;33.20;19.90;;;11.40;99.90;;;;;;5084915;28;20090;-67
2022/05/07 02:11:19;;;;;;;34.95;19.90;;;11.40;99.90;;;;;;5060874;28;20530;-66
2022/05/07 02:13:47;;;;;;;35.35;19.92;;;11.40;99.90;;;;;;5071013;28;20032;-67
2022/05/07 02:16:14;;;;;;;;;;;11.40;99.90;;;;;;5053398;28;20431;-67
2022/05/07 02:18:43;;;;;;;32.20;19.60;;;11.40;99.90;;;;;;5066565;28;19927;-67
2022/05/07 02:21:09;;;;;;;39.38;20.45;;;11.40;99.90;;;;;;5082403;28;20044;-66
2022/05/07 02:23:36;;;;;;;33.55;18.85;;;11.40;99.90;;;;;;5090701;28;20094;-67
2022/05/07 02:26:03;;;;;;;39.60;20.65;;;11.40;99.90;;;;;;5072886;28;20048;-66
2022/05/07 02:28:30;;;;;;;39.58;21.27;;;11.40;99.90;;;;;;5084109;28;20044;-66
2022/05/07 02:30:56;;;;;;;34.47;18.77;;;11.30;99.90;;;;;;5068421;28;20040;-66
2022/05/07 02:33:24;;;;;;;36.67;19.92;;;11.30;99.90;;;;;;5073024;28;20074;-66
2022/05/07 02:35:51;;;;;;;34.33;19.95;;;11.40;99.90;;;;;;5072535;28;20072;-66
2022/05/07 02:38:18;;;;;;;38.45;20.80;;;11.40;99.90;;;;;;5079979;28;20075;-66
2022/05/07 02:43:37;;;;;;;39.25;20.40;;;11.40;99.90;;;;;;5052948;28;20051;-66
2022/05/07 02:46:10;;;;;;;36.42;19.73;;;11.40;99.90;;;;;;5061277;28;20044;-67
2022/05/07 02:48:39;;;;;;;36.75;20.73;;;11.40;99.90;;;;;;5064410;28;20067;-67
2022/05/07 02:51:08;;;;;;;33.47;19.40;;;11.40;99.90;;;;;;5089417;28;20094;-67
2022/05/07 02:53:36;;;;;;;36.83;19.80;;;11.40;99.90;;;;;;5090772;28;20406;-67
2022/05/07 02:56:03;;;;;;;33.28;19.42;;;11.40;99.90;;;;;;5063166;28;20040;-66
2022/05/07 02:58:31;;;;;;;;;;;11.40;99.90;;;;;;5073308;28;20048;-67
2022/05/07 03:00:58;;;;;;;34.55;19.88;;;11.40;99.90;;;;;;5074152;28;19927;-66
2022/05/07 03:03:25;;;;;;;30.10;17.85;;;11.40;99.90;;;;;;5071905;28;20044;-67
2022/05/07 03:05:59;;;;;;;35.67;20.35;;;11.40;99.90;;;;;;5072337;28;20178;-67
2022/05/07 03:08:26;;;;;;;34.53;19.35;;;11.40;99.90;;;;;;5076198;28;20048;-67
2022/05/07 03:10:53;;;;;;;36.92;20.60;;;11.40;99.90;;;;;;5071746;28;20116;-67
2022/05/07 03:13:20;;;;;;;36.35;19.15;;;11.40;99.90;;;;;;5085234;28;20036;-67
2022/05/07 03:15:46;;;;;;;37.00;19.63;;;11.40;99.90;;;;;;5094364;28;20051;-66
2022/05/07 03:18:15;;;;;;;34.45;18.77;;;11.40;99.90;;;;;;5074390;28;20061;-66
2022/05/07 03:20:42;;;;;;;38.10;19.42;;;11.40;99.90;;;;;;5061301;28;20123;-66
2022/05/07 03:23:15;;;;;;;35.45;20.35;;;11.40;99.90;;;;;;5092908;28;20504;-67
2022/05/07 03:25:45;;;;;;;33.70;19.10;;;11.50;99.90;;;;;;5075329;28;20101;-66
2022/05/07 03:28:12;;;;;;;36.35;20.42;;;11.40;99.90;;;;;;5083442;28;20051;-66
2022/05/07 03:30:39;;;;;;;36.75;19.85;;;11.40;99.90;;;;;;5075651;28;20063;-66
2022/05/07 03:33:07;;;;;;;40.45;20.08;;;11.50;99.90;;;;;;5092853;28;20044;-66
2022/05/07 03:35:37;;;;;;;34.67;19.83;;;11.50;99.90;;;;;;5075328;28;20524;-67
2022/05/07 03:38:04;;;;;;;36.13;19.30;;;11.50;99.90;;;;;;5072249;22;20052;-71
2022/05/07 03:44:10;;;;;;;;;;;11.50;99.90;;;;;;5056062;28;20052;-73
2022/05/07 03:46:38;;;;;;;35.85;20.27;;;11.50;99.90;;;;;;5054715;28;19921;-72
2022/05/07 03:49:07;;;;;;;35.13;19.20;;;11.50;99.90;;;;;;5050730;28;20060;-72
2022/05/07 03:54:24;;;;;;;37.95;21.48;;;11.40;99.90;;;;;;5054115;28;20040;-72
2022/05/07 03:56:51;;;;;;;39.30;20.90;;;11.40;99.90;;;;;;5055314;28;20040;-72
2022/05/07 03:59:23;;;;;;;39.95;21.75;;;11.40;99.90;;;;;;5054916;28;20062;-72
2022/05/07 04:01:53;;;;;;;36.88;20.13;;;11.40;99.90;;;;;;5050934;28;20047;-72
2022/05/07 04:04:28;;;;;;;37.47;20.42;;;11.40;99.90;;;;;;5047171;28;20040;-72
2022/05/07 04:07:03;;;;;;;38.45;19.38;;;11.50;99.90;;;;;;5055293;28;20507;-70
2022/05/07 04:09:31;;;;;;;40.35;20.77;;;11.50;99.90;;;;;;5054823;28;20071;-73
2022/05/07 04:11:58;;;;;;;40.50;21.25;;;11.50;99.90;;;;;;5053112;28;20053;-72
2022/05/07 04:14:25;;;;;;;38.15;21.17;;;11.40;99.90;;;;;;5055114;28;20523;-72
2022/05/07 04:16:56;;;;;;;43.38;21.48;;;11.40;99.90;;;;;;5055166;28;20412;-73
2022/05/07 04:19:23;;;;;;;42.08;21.58;;;11.40;99.90;;;;;;5072714;28;20048;-72
2022/05/07 04:21:55;;;;;;;44.10;21.42;;;11.40;99.90;;;;;;5054078;28;20434;-71
2022/05/07 04:24:28;;;;;;;25.33;14.98;;;11.40;99.90;;;;;;5034976;28;20049;-73
2022/05/07 04:26:57;;;;;;;30.05;16.52;;;11.30;99.90;;;;;;5034914;28;20041;-73
2022/05/07 04:29:25;;;;;;;;;;;11.40;99.90;;;;;;5045006;28;20041;-73
2022/05/07 04:32:02;;;;;;;36.83;17.45;;;11.30;99.90;;;;;;5054687;28;19934;-73
2022/05/07 04:34:29;;;;;;;37.88;20.50;;;11.40;99.90;;;;;;5054547;28;20052;-73
2022/05/07 04:36:58;;;;;;;34.50;18.17;;;11.40;99.90;;;;;;5054403;28;20044;-70
2022/05/07 04:39:25;;;;;;;33.97;16.90;;;11.40;99.90;;;;;;5053158;28;20045;-73
2022/05/07 04:41:59;;;;;;;28.45;15.93;;;11.40;99.90;;;;;;5054634;28;20040;-73
2022/05/07 04:44:34;;;;;;;27.40;15.18;;;11.40;99.90;;;;;;5054586;28;20045;-73
2022/05/07 04:47:02;;;;;;;32.70;15.00;;;11.40;99.90;;;;;;5071097;28;20109;-73
2022/05/07 04:49:29;;;;;;;29.55;16.15;;;11.40;99.90;;;;;;5052384;28;20036;-73
2022/05/07 04:51:56;;;;;;;26.85;14.95;;;11.40;99.90;;;;;;5054431;28;20094;-73
2022/05/07 04:54:25;;;;;;;27.05;15.63;;;11.40;99.90;;;;;;5054433;28;20048;-73
2022/05/07 04:56:52;;;;;;;28.48;15.27;;;11.40;99.90;;;;;;5053038;28;20124;-73
2022/05/07 04:59:27;;;;;;;26.58;14.82;;;11.40;99.90;;;;;;5045639;28;20064;-71
2022/05/07 05:02:06;;;;;;;26.40;14.77;;;11.40;99.90;;;;;;5054038;28;20052;-73
2022/05/07 05:04:34;;;;;;;25.48;14.65;;;11.40;99.90;;;;;;5054216;28;20076;-71
2022/05/07 05:07:07;;;;;;;24.98;14.30;;;11.40;99.90;;;;;;5054217;28;20413;-73
2022/05/07 05:09:36;;;;;;;23.88;14.30;;;11.40;99.90;;;;;;5053584;28;20048;-70
2022/05/07 05:12:09;;;;;;;28.17;15.15;;;11.50;99.90;;;;;;5054275;28;20037;-73
2022/05/07 05:17:38;;;;;;;27.70;15.18;;;11.50;99.90;;;;;;5063789;28;20040;-73
2022/05/07 05:20:06;;;;;;;30.45;15.02;;;11.50;99.90;;;;;;5053545;28;20106;-73
2022/05/07 05:22:35;;;;;;;25.17;14.98;;;11.60;99.90;;;;;;5049446;28;20090;-73
2022/05/07 05:25:05;;;;;;;32.97;16.90;;;11.70;99.90;;;;;;5050315;28;20049;-73
2022/05/07 05:27:34;;;;;;;31.83;16.55;;;11.70;99.90;;;;;;5070440;28;20052;-73
2022/05/07 05:30:01;;;;;;;33.65;16.85;;;11.70;99.90;;;;;;5053306;28;20040;-73
2022/05/07 05:32:29;;;;;;;27.52;15.20;;;11.70;99.90;;;;;;5064815;28;20086;-72
2022/05/07 05:35:00;;;;;;;28.33;14.88;;;11.70;99.90;;;;;;5053505;28;20051;-73
2022/05/07 05:37:35;;;;;;;29.38;16.30;;;11.70;99.90;;;;;;5070250;28;20496;-73
2022/05/07 05:40:01;;;;;;;27.95;15.23;;;11.80;99.90;;;;;;5067269;28;20056;-73
2022/05/07 05:42:35;;;;;;;26.40;15.82;;;11.80;99.90;;;;;;5046294;28;20493;-73
2022/05/07 05:45:03;;;;;;;26.23;14.48;;;11.80;99.90;;;;;;5053650;28;20049;-73
2022/05/07 05:47:30;;;;;;;32.80;15.38;;;11.80;99.90;;;;;;5071377;28;20455;-73
2022/05/07 05:49:57;;;;;;;29.70;16.08;;;11.80;99.90;;;;;;5051666;28;20584;-73
2022/05/07 05:52:32;;;;;;;26.83;15.00;;;11.80;99.90;;;;;;5045720;28;20044;-72
2022/05/07 05:54:59;;;;;;;44.85;16.55;;;11.80;99.90;;;;;;5053553;28;20045;-73
2022/05/07 05:57:26;;;;;;;25.98;15.57;;;11.70;99.90;;;;;;5053471;28;20044;-72
2022/05/07 05:59:53;;;;;;;27.23;15.15;;;11.80;99.90;;;;;;5050423;28;20554;-71
2022/05/07 06:02:21;;;;;;;32.72;15.95;;;11.80;99.90;;;;;;5052819;28;20044;-72
2022/05/07 06:04:54;;;;;;;26.08;14.68;;;11.80;99.90;;;;;;5051842;28;20571;-72
2022/05/07 06:07:24;;;;;;;27.77;14.48;;;11.80;99.90;;;;;;5071288;28;20052;-72
2022/05/07 06:09:55;;;;;;;27.00;15.07;;;11.80;99.90;;;;;;5051558;28;20162;-72
2022/05/07 06:12:24;;;;;;;47.03;16.45;;;11.80;99.90;;;;;;5070857;28;20381;-72
2022/05/07 06:14:55;;;;;;;26.67;15.27;;;11.80;99.90;;;;;;5052997;28;20050;-73
2022/05/07 06:17:27;;;;;;;27.08;15.50;;;11.90;99.90;;;;;;5051210;28;20497;-73
2022/05/07 06:19:54;;;;;;;28.90;14.48;;;11.80;99.90;;;;;;5047720;28;20079;-72
2022/05/07 06:22:22;;;;;;;27.27;14.82;;;11.80;99.90;;;;;;5068446;28;20135;-73
2022/05/07 06:27:52;;;;;;;24.27;14.52;;;11.80;99.90;;;;;;5068722;28;20060;-73
2022/05/07 06:30:25;;;;;;;26.27;13.75;;;11.80;99.90;;;;;;5052361;28;20118;-73
2022/05/07 06:32:55;;;;;;;25.83;14.15;;;11.80;99.90;;;;;;5052678;28;20412;-72
2022/05/07 06:35:28;;;;;;;24.75;14.00;;;11.80;99.90;;;;;;5053821;28;20048;-71
2022/05/07 06:38:01;;;;;;;45.92;15.95;;;11.80;99.90;;;;;;5056461;28;20043;-71
2022/05/07 06:40:28;;;;;;;;;;;11.90;99.90;;;;;;5036953;28;20094;-71
2022/05/07 06:42:55;;;;;;;21.02;12.60;;;11.90;99.90;;;;;;5036838;28;19925;-71
2022/05/07 06:45:52;;;;;;;21.77;11.65;;;11.90;99.90;;;;;;5008359;28;20549;-71
2022/05/07 06:48:19;;;;;;;;;;;12.00;99.90;;;;;;5056282;28;20144;-72
2022/05/07 06:50:51;;;;;;;22.25;12.52;;;12.10;99.90;;;;;;5039517;28;19927;-71
2022/05/07 06:53:22;;;;;;;17.25;11.80;;;12.10;99.90;;;;;;5056120;28;20041;-71
2022/05/07 06:55:55;;;;;;;19.35;12.02;;;12.10;99.90;;;;;;5071018;28;20103;-71
2022/05/07 06:58:24;;;;;;;21.10;12.68;;;12.10;99.90;;;;;;5073805;28;20048;-71
2022/05/07 07:00:58;;;;;;;21.00;12.13;;;12.20;99.90;;;;;;5073620;28;20124;-71
2022/05/07 07:03:26;;;;;;;28.35;13.18;;;12.20;99.90;;;;;;5070253;28;20476;-71
2022/05/07 07:05:55;;;;;;;24.08;12.63;;;12.30;99.90;;;;;;5074027;28;20068;-71
2022/05/07 07:08:29;;;;;;;19.48;11.90;;;12.30;99.90;;;;;;5074086;28;20049;-71
2022/05/07 07:10:57;;;;;;;16.25;10.75;;;12.30;99.90;;;;;;5073071;28;20036;-71
2022/05/07 07:13:24;;;;;;;;;;;12.30;99.90;;;;;;5074016;28;20036;-71
2022/05/07 07:15:51;;;;;;;20.63;11.65;;;12.30;99.90;;;;;;5073850;28;19920;-71
2022/05/07 07:18:18;;;;;;;13.95;9.27;;;12.40;99.90;;;;;;5049183;28;20062;-71
2022/05/07 07:20:48;;;;;;;8.23;5.50;;;12.40;99.90;;;;;;5070890;28;20098;-71
2022/05/07 07:23:15;;;;;;;12.50;8.27;;;12.40;99.90;;;;;;5072521;28;20138;-71
2022/05/07 07:25:43;;;;;;;14.73;9.18;;;12.40;99.90;;;;;;5073606;28;20037;-71
2022/05/07 07:28:12;;;;;;;12.20;7.88;;;12.60;99.90;;;;;;5073766;28;20052;-71
2022/05/07 07:30:39;;;;;;;12.25;7.57;;;12.50;99.90;;;;;;5070114;28;20047;-71
2022/05/07 07:33:07;;;;;;;16.17;8.05;;;12.60;99.90;;;;;;5073353;28;20091;-72
2022/05/07 07:35:35;;;;;;;17.02;7.50;;;12.60;99.90;;;;;;5073756;28;20039;-72
2022/05/07 07:38:02;;;;;;;8.68;6.72;;;12.70;99.90;;;;;;5068038;28;20436;-72
2022/05/07 07:40:29;;;;;;;9.07;5.63;;;12.80;99.90;;;;;;5073240;28;20063;-71
2022/05/07 07:42:58;;;;;;;7.68;5.63;;;12.90;99.90;;;;;;5055551;28;20439;-71
2022/05/07 07:48:10;;;;;;;15.02;8.30;;;12.90;99.90;;;;;;5072084;28;20050;-72
2022/05/07 07:50:38;;;;;;;10.95;6.78;;;12.90;99.90;;;;;;5072863;28;20408;-72
2022/05/07 07:53:06;;;;;;;9.07;5.50;;;12.90;99.90;;;;;;5073583;28;20076;-72
2022/05/07 07:55:34;;;;;;;10.32;6.22;;;12.80;99.90;;;;;;5067510;28;20489;-72
2022/05/07 07:58:04;;;;;;;16.30;7.32;;;12.80;99.90;;;;;;5073001;28;20115;-73
2022/05/07 08:00:33;;;;;;;13.20;7.63;;;12.80;99.90;;;;;;5071317;28;20098;-73
2022/05/07 08:03:05;;;;;;;7.15;5.88;;;12.80;99.90;;;;;;5065807;28;20040;-73
2022/05/07 08:05:36;;;;;;;10.77;7.15;;;12.90;99.90;;;;;;5065743;28;20055;-72
2022/05/07 08:13:39;;;;;;;9.57;6.90;;;12.80;99.90;;;;;;5065820;28;20029;-72
2022/05/07 08:16:09;;;;;;;8.15;6.38;;;12.70;99.90;;;;;;5072241;28;20493;-72
2022/05/07 08:18:37;;;;;;;11.50;7.53;;;12.70;99.90;;;;;;5072251;28;20048;-71
2022/05/07 08:21:06;;;;;;;19.13;7.63;;;12.70;99.90;;;;;;5069060;28;20036;-71
2022/05/07 08:23:32;;;;;;;14.63;7.95;;;12.80;99.90;;;;;;5072273;28;20044;-71
2022/05/07 08:26:01;;;;;;;12.55;7.68;;;12.80;99.90;;;;;;5072367;28;20501;-71
2022/05/07 08:28:29;;;;;;;11.07;7.28;;;12.80;99.90;;;;;;5069777;28;20090;-71
2022/05/07 08:30:56;;;;;;;11.10;7.03;;;12.80;99.90;;;;;;5071895;28;20094;-71
2022/05/07 08:33:23;;;;;;;8.35;5.57;;;12.80;99.90;;;;;;5072546;28;20051;-71
2022/05/07 08:35:49;;;;;;;9.63;6.20;;;12.80;99.90;;;;;;5072330;28;20033;-71
2022/05/07 08:38:18;;;;;;;11.80;5.75;;;12.90;99.90;;;;;;5068447;28;20127;-71
2022/05/07 08:40:45;;;;;;;11.30;6.03;;;12.90;99.90;;;;;;5071881;28;21107;-71
2022/05/07 08:43:14;;;;;;;6.93;5.07;;;12.90;99.90;;;;;;5072063;28;20059;-71
2022/05/07 08:45:41;;;;;;;12.35;5.93;;;12.90;99.90;;;;;;5072234;28;20064;-71
2022/05/07 08:48:08;;;;;;;9.45;6.18;;;12.90;99.90;;;;;;5066461;28;20405;-71
2022/05/07 08:50:35;;;;;;;9.65;6.68;;;12.90;99.90;;;;;;5071569;28;20047;-71
2022/05/07 08:53:02;;;;;;;36.03;21.27;;;12.90;99.90;;;;;;5072034;28;20523;-71
2022/05/07 08:55:29;;;;;;;17.75;10.23;;;12.80;99.90;;;;;;5069996;28;20041;-71
2022/05/07 08:57:57;;;;;;;17.10;9.65;;;12.80;99.90;;;;;;5071054;28;20486;-72
2022/05/07 09:00:26;;;;;;;12.80;8.38;;;12.80;99.90;;;;;;5071650;28;20044;-71
2022/05/07 09:02:58;;;;;;;17.40;9.40;;;12.80;99.90;;;;;;5068102;28;20045;-72
2022/05/07 09:05:32;;;;;;;14.95;8.40;;;12.90;99.90;;;;;;5071384;28;20045;-71
2022/05/07 09:08:01;;;;;;;13.43;9.13;;;13.00;99.90;;;;;;5071808;28;20033;-71
2022/05/07 09:10:36;;;;;;;11.73;7.60;;;13.20;99.90;;;;;;5070329;28;20315;-72
2022/05/07 09:13:12;;;;;;;10.88;7.53;;;13.40;99.90;;;;;;5064556;28;20040;-72
2022/05/07 09:15:55;;;;;;;14.90;7.47;;;13.50;99.90;;;;;;5071744;28;20468;-72
2022/05/07 09:18:24;;;;;;;11.07;8.07;;;13.60;99.90;;;;;;5071849;28;20423;-72
2022/05/07 09:21:23;;;;;;;14.23;7.97;;;13.50;99.90;;;;;;5071276;28;20056;-72
2022/05/07 09:23:56;;;;;;;13.77;8.30;;;13.40;99.90;;;;;;5066417;28;20056;-71
2022/05/07 09:26:24;;;;;;;13.73;8.68;;;13.10;99.90;;;;;;5071291;28;20047;-72
2022/05/07 09:28:51;;;;;;;10.63;7.20;;;13.00;99.90;;;;;;5068415;28;20511;-72
2022/05/07 09:31:29;;;;;;;16.50;9.60;;;13.00;99.90;;;;;;5069323;28;20040;-72
2022/05/07 09:35:47;;;;;;;;;;;13.00;99.90;;;;;;5071990;28;20083;-72
2022/05/07 09:36:43;;;;;;;13.45;8.77;;;12.90;99.90;;;;;;5070919;28;19924;-71
2022/05/07 09:39:12;;;;;;;11.07;7.47;;;13.00;99.90;;;;;;5068895;28;20055;-72
2022/05/07 09:41:43;;;;;;;15.10;8.32;;;12.90;99.90;;;;;;5067592;28;20048;-72
2022/05/07 09:44:13;;;;;;;10.10;6.88;;;13.00;99.90;;;;;;5069932;28;20048;-73
2022/05/07 09:46:39;;;;;;;13.75;7.63;;;13.00;99.90;;;;;;5070445;28;20048;-73
2022/05/07 09:49:08;;;;;;;9.43;6.45;;;13.20;99.90;;;;;;5069181;28;20037;-73
2022/05/07 09:51:35;;;;;;;13.43;7.50;;;13.30;99.90;;;;;;5070338;28;20033;-73
2022/05/07 09:59:33;;;;;;;10.45;7.05;;;13.60;99.90;;;;;;5069832;28;20054;-73
2022/05/07 10:02:27;;;;;;;11.40;7.45;;;13.90;99.90;;;;;;5067820;28;20032;-73
2022/05/07 10:05:01;;;;;;;15.45;7.65;;;14.10;99.90;;;;;;5063130;28;20042;-74
2022/05/07 10:08:10;;;;;;;10.70;7.45;;;14.20;99.90;;;;;;5063114;28;20469;-74
2022/05/07 10:10:39;;;;;;;9.38;6.20;;;14.40;99.90;;;;;;5072121;28;20048;-74
2022/05/07 10:13:06;;;;;;;10.00;6.95;;;14.40;99.90;;;;;;5073193;28;20040;-74
2022/05/07 10:15:33;;;;;;;;;;;14.30;99.90;;;;;;5075525;28;20045;-74
2022/05/07 10:18:01;;;;;;;10.75;6.78;;;14.30;99.90;;;;;;5057167;28;19920;-73
2022/05/07 10:20:44;;;;;;;11.57;6.90;;;14.20;99.90;;;;;;5074913;28;20052;-74
2022/05/07 10:23:13;;;;;;;16.90;6.97;;;14.30;99.90;;;;;;5069748;28;20056;-74
2022/05/07 10:25:43;;;;;;;10.55;6.07;;;14.30;99.90;;;;;;5075041;28;20048;-74
2022/05/07 10:28:15;;;;;;;10.18;6.57;;;14.40;99.90;;;;;;5075049;28;20049;-73
2022/05/07 10:30:54;;;;;;;12.65;6.10;;;14.40;99.90;;;;;;5070270;28;20037;-74
2022/05/07 10:33:22;;;;;;;10.82;6.18;;;14.30;99.90;;;;;;5074768;28;20630;-74
2022/05/07 10:35:54;;;;;;;11.48;7.45;;;14.10;99.90;;;;;;5074574;28;20576;-74
2022/05/07 10:38:24;;;;;;;13.65;7.40;;;13.90;99.90;;;;;;5074798;28;20098;-74
2022/05/07 10:41:04;;;;;;;10.98;7.95;;;13.80;99.90;;;;;;5073735;28;20036;-73
2022/05/07 10:43:33;;;;;;;12.13;7.50;;;13.70;99.90;;;;;;5054498;28;20057;-73
2022/05/07 10:46:19;;;;;;;13.38;8.05;;;13.70;99.90;;;;;;5054783;28;20110;-73
2022/05/07 10:49:04;;;;;;;12.13;8.90;;;13.60;99.90;;;;;;5069613;28;20511;-73
2022/05/07 10:51:40;;;;;;;12.73;9.05;;;13.80;99.90;;;;;;5054354;28;20041;-73
2022/05/07 10:54:24;;;;;;;12.05;9.35;;;14.00;99.90;;;;;;5060931;28;20049;-73
2022/05/07 10:56:57;;;;;;;16.25;8.30;;;14.30;99.90;;;;;;5069833;28;20058;-73
2022/05/07 10:59:29;;;;;;;10.30;7.57;;;14.40;99.90;;;;;;5073140;28;20049;-73
2022/05/07 11:02:08;;;;;;;12.77;7.25;;;14.50;99.90;;;;;;5072146;28;20036;-72
2022/05/07 11:04:43;;;;;;;13.30;8.45;;;14.50;99.90;;;;;;5073320;28;20127;-72
2022/05/07 11:07:10;;;;;;;12.63;8.25;;;14.50;99.90;;;;;;5070701;28;20535;-72
2022/05/07 11:09:39;;;;;;;10.02;7.20;;;14.50;99.90;;;;;;5071346;28;20124;-73
2022/05/07 11:12:13;;;;;;;12.90;8.50;;;14.40;99.90;;;;;;5073312;28;20037;-73
2022/05/07 11:14:44;;;;;;;15.38;9.10;;;14.10;99.90;;;;;;5071000;28;20076;-73
2022/05/07 11:17:10;;;;;;;11.10;8.50;;;13.90;99.90;;;;;;5073155;28;20052;-73
2022/05/07 11:19:38;;;;;;;13.40;9.05;;;13.80;99.90;;;;;;5072774;28;20040;-73
2022/05/07 11:22:08;;;;;;;;;;;13.70;99.90;;;;;;5072576;28;20040;-73
2022/05/07 11:24:34;;;;;;;13.73;9.52;;;13.70;99.90;;;;;;5073047;28;20285;-73
2022/05/07 11:27:05;;;;;;;15.30;8.48;;;13.90;99.90;;;;;;5073138;28;20098;-73
2022/05/07 11:29:36;;;;;;;9.95;7.80;;;14.10;99.90;;;;;;5072482;28;20075;-73
2022/05/07 11:32:11;;;;;;;12.88;7.78;;;14.30;99.90;;;;;;5068505;28;20128;-72
2022/05/07 11:34:42;;;;;;;11.43;8.50;;;14.70;99.90;;;;;;5073023;28;20056;-73
2022/05/07 11:37:13;;;;;;;10.60;7.75;;;15.10;99.90;;;;;;5072563;28;20037;-73
2022/05/07 11:39:50;;;;;;;15.13;8.40;;;15.40;99.90;;;;;;5072482;28;20443;-73
2022/05/07 11:42:34;;;;;;;14.73;7.90;;;15.30;99.90;;;;;;5067884;28;20033;-72
2022/05/07 11:45:27;;;;;;;11.43;7.15;;;15.10;99.90;;;;;;5073393;28;20040;-73
2022/05/07 11:48:04;;;;;;;11.20;7.88;;;14.80;99.90;;;;;;5073811;28;20118;-73
2022/05/07 11:50:33;;;;;;;12.18;8.45;;;14.60;99.90;;;;;;5070271;28;20082;-72
2022/05/07 11:53:22;;;;;;;10.32;7.88;;;14.40;99.90;;;;;;5069580;28;20041;-73
2022/05/07 11:55:50;;;;;;;12.90;8.43;;;14.30;99.90;;;;;;5062516;28;20428;-74
2022/05/07 11:58:22;;;;;;;10.95;8.93;;;14.20;99.90;;;;;;5071849;28;20412;-74
2022/05/07 12:00:50;;;;;;;13.82;9.80;;;14.10;99.90;;;;;;5069541;28;20393;-74
2022/05/07 12:03:19;;;;;;;21.75;9.63;;;14.10;99.90;;;;;;5072702;28;20399;-75
2022/05/07 12:05:50;;;;;;;10.90;8.57;;;14.00;99.90;;;;;;5070208;28;20489;-74
2022/05/07 12:08:19;;;;;;;12.45;9.52;;;13.90;99.90;;;;;;5070081;28;20044;-76
2022/05/07 12:10:51;;;;;;;13.13;9.45;;;13.80;99.90;;;;;;5069541;28;20460;-75
2022/05/07 12:13:19;;;;;;;14.50;10.27;;;13.80;99.90;;;;;;5072663;28;20072;-75
2022/05/07 12:18:36;;;;;;;14.63;9.13;;;13.70;99.90;;;;;;5069194;28;20037;-75
2022/05/07 12:21:05;;;;;;;13.63;9.52;;;13.70;99.90;;;;;;5072744;28;20410;-74
2022/05/07 12:32:15;;;;;;;18.92;9.63;;;14.70;99.90;;;;;;5084129;28;20041;-64
2022/05/07 12:34:42;;;;;;;11.98;9.15;;;14.90;99.90;;;;;;5091507;28;20054;-64
2022/05/07 12:37:09;;;;;;;14.90;8.65;;;15.10;99.90;;;;;;5092913;28;20085;-64
2022/05/07 12:39:40;;;;;;;11.98;8.73;;;15.40;99.90;;;;;;5091971;28;20047;-64
2022/05/07 12:42:08;;;;;;;12.65;8.68;;;15.50;99.90;;;;;;5094086;28;20510;-64
2022/05/07 12:44:35;;;;;;;14.07;9.25;;;15.50;99.90;;;;;;5092422;28;20101;-64
2022/05/07 12:47:05;;;;;;;17.63;9.88;;;15.60;99.90;;;;;;5092844;28;20546;-64
2022/05/07 12:49:32;;;;;;;18.70;9.57;;;15.70;99.90;;;;;;5093616;28;20055;-64
2022/05/07 12:51:58;;;;;;;17.88;10.05;;;15.60;99.90;;;;;;5092192;28;20036;-64
2022/05/07 12:54:25;;;;;;;11.85;8.50;;;15.50;99.90;;;;;;5092319;28;20044;-64
2022/05/07 12:56:53;;;;;;;11.90;8.98;;;15.40;99.90;;;;;;5092835;28;20450;-64
2022/05/07 12:59:19;;;;;;;;;;;15.30;99.90;;;;;;5092490;28;20435;-64
2022/05/07 13:01:46;;;;;;;15.85;7.78;;;15.10;99.90;;;;;;5092261;28;19965;-63
2022/05/07 13:04:13;;;;;;;11.85;8.07;;;14.90;99.90;;;;;;5092376;28;20389;-64
2022/05/07 13:06:40;;;;;;;14.40;8.68;;;14.70;99.90;;;;;;5092264;28;20048;-66
2022/05/07 13:09:06;;;;;;;14.57;9.27;;;14.60;99.90;;;;;;5092105;28;20048;-66
2022/05/07 13:11:33;;;;;;;18.90;9.93;;;14.50;99.90;;;;;;5091702;28;20044;-65
2022/05/07 13:14:00;;;;;;;15.88;10.20;;;14.30;99.90;;;;;;5091888;28;20090;-65
2022/05/07 13:16:27;;;;;;;15.75;10.85;;;14.20;99.90;;;;;;5096747;28;20044;-65
2022/05/07 13:18:54;;;;;;;13.77;10.20;;;14.10;99.90;;;;;;5091951;28;20032;-65
2022/05/07 13:21:22;;;;;;;15.43;10.48;;;14.10;99.90;;;;;;5092277;28;20047;-65
2022/05/07 13:23:48;;;;;;;19.30;11.25;;;14.00;99.90;;;;;;5091741;28;20443;-65
2022/05/07 13:26:15;;;;;;;15.80;9.15;;;14.00;99.90;;;;;;5091622;28;20043;-65
2022/05/07 13:29:04;;;;;;;15.68;9.80;;;14.00;99.90;;;;;;5091964;28;20492;-66
2022/05/07 13:31:31;;;;;;;16.17;9.88;;;14.00;99.90;;;;;;5091272;28;20495;-66
2022/05/07 13:33:58;;;;;;;;;;;14.10;99.90;;;;;;5094739;28;20123;-66
2022/05/07 13:36:25;;;;;;;12.32;8.27;;;14.30;99.90;;;;;;5091743;28;20291;-66